createdAt,value
2022-10-21T00:01:22.559Z,100443.03
2022-10-21T00:04:29.420Z,100453.05
2022-10-21T00:07:35.171Z,100458.55
2022-10-21T00:10:41.720Z,100457.15
2022-10-21T00:13:48.669Z,100452.04
2022-10-21T00:16:55.179Z,100466.34
2022-10-21T00:19:53.775Z,100454.81
2022-10-21T00:23:00.276Z,100471.91
2022-10-21T00:26:12.527Z,100462.71
2022-10-21T00:29:19.220Z,100473.95
2022-10-21T00:32:25.610Z,100465.38
2022-10-21T00:35:31.314Z,100482.48
2022-10-21T00:38:36.873Z,100486.92
2022-10-21T00:41:42.788Z,100500.02
2022-10-21T00:44:51.357Z,100494.94
2022-10-21T00:48:09.237Z,100504.98
2022-10-21T00:51:21.622Z,100508.77
2022-10-21T00:54:27.096Z,100490.91
2022-10-21T00:57:34.056Z,100501.09
2022-10-21T01:00:40.206Z,100503.81
2022-10-21T01:03:46.475Z,100512.48
2022-10-21T01:06:52.461Z,100515.30
2022-10-21T01:09:57.392Z,100525.33
2022-10-21T01:13:50.979Z,100532.23
2022-10-21T01:17:26.433Z,100530.11
2022-10-21T01:20:53.152Z,100534.20
2022-10-21T01:24:18.592Z,100543.72
2022-10-21T01:27:27.719Z,100538.06
2022-10-21T01:30:54.438Z,100539.86
2022-10-21T01:34:06.738Z,100548.81
2022-10-21T01:37:29.067Z,100555.34
2022-10-21T01:40:38.217Z,100566.20
2022-10-21T01:43:59.818Z,100561.53
2022-10-21T01:47:15.600Z,100564.97
2022-10-21T01:50:25.455Z,100565.33
2022-10-21T01:53:21.782Z,100564.59
2022-10-21T01:56:28.269Z,100583.97
2022-10-21T01:59:34.375Z,100595.02
2022-10-21T02:02:43.048Z,100599.66
2022-10-21T02:05:48.550Z,100604.62
2022-10-21T02:08:56.080Z,100598.39
2022-10-21T02:12:04.807Z,100620.13
2022-10-21T02:15:10.722Z,100621.25
2022-10-21T02:18:25.943Z,100624.94
2022-10-21T02:21:34.084Z,100624.70
2022-10-21T02:24:53.411Z,100621.80
2022-10-21T02:27:53.968Z,100624.05
2022-10-21T02:31:22.053Z,100636.34
2022-10-21T02:34:55.700Z,100638.69
2022-10-21T02:38:29.120Z,100639.75
2022-10-21T02:41:36.789Z,100649.34
2022-10-21T02:44:42.625Z,100647.11
2022-10-21T02:47:44.842Z,100651.50
2022-10-21T02:50:51.099Z,100654.06
2022-10-21T02:53:55.902Z,100654.50
2022-10-21T02:57:02.559Z,100653.82
2022-10-21T03:00:09.229Z,100656.41
2022-10-21T03:03:15.649Z,100660.55
2022-10-21T03:06:21.643Z,100659.78
2022-10-21T03:09:27.239Z,100665.38
2022-10-21T03:12:34.238Z,100660.89
2022-10-21T03:15:41.042Z,100662.60
2022-10-21T03:18:46.663Z,100669.80
2022-10-21T03:21:53.555Z,100667.67
2022-10-21T03:25:01.186Z,100679.22
2022-10-21T03:28:07.375Z,100679.95
2022-10-21T03:31:13.219Z,100681.47
2022-10-21T03:34:19.011Z,100688.55
2022-10-21T03:37:24.701Z,100691.01
2022-10-21T03:40:30.918Z,100701.03
2022-10-21T03:43:38.742Z,100692.97
2022-10-21T03:46:43.398Z,100698.45
2022-10-21T03:49:42.189Z,100701.59
2022-10-21T03:52:27.621Z,100694.30
2022-10-21T03:55:20.387Z,100708.84
2022-10-21T03:58:07.346Z,100705.61
2022-10-21T04:01:01.592Z,100717.18
2022-10-21T04:03:55.136Z,100714.61
2022-10-21T04:07:01.130Z,100713.66
2022-10-21T04:10:06.240Z,100718.22
2022-10-21T04:13:12.571Z,100717.12
2022-10-21T04:16:21.254Z,100715.44
2022-10-21T04:19:32.987Z,100718.98
2022-10-21T04:22:39.727Z,100716.25
2022-10-21T04:25:44.699Z,100716.48
2022-10-21T04:28:49.948Z,100722.14
2022-10-21T04:35:01.678Z,100722.24
2022-10-21T04:38:08.984Z,100731.80
2022-10-21T04:41:16.790Z,100730.21
2022-10-21T04:44:22.657Z,100738.02
2022-10-21T04:47:29.210Z,100747.69
2022-10-21T04:50:34.816Z,100755.56
2022-10-21T04:53:41.187Z,100768.13
2022-10-21T04:56:40.475Z,100770.33
2022-10-21T04:59:26.383Z,100781.20
2022-10-21T05:02:22.994Z,100783.78
2022-10-21T05:05:08.730Z,100785.08
2022-10-21T05:08:02.268Z,100785.95
2022-10-21T05:11:12.738Z,100785.13
2022-10-21T05:14:22.507Z,100796.29
2022-10-21T05:17:26.936Z,100807.57
2022-10-21T05:20:33.337Z,100808.45
2022-10-21T05:23:40.856Z,100819.28
2022-10-21T05:26:46.497Z,100814.22
2022-10-21T05:29:52.667Z,100822.46
2022-10-21T05:32:59.501Z,100824.39
2022-10-21T05:36:20.534Z,100830.00
2022-10-21T05:39:24.994Z,100831.72
2022-10-21T05:42:30.629Z,100831.25
2022-10-21T05:45:36.781Z,100821.20
2022-10-21T05:48:42.971Z,100839.66
2022-10-21T05:51:47.891Z,100841.95
2022-10-21T05:54:59.488Z,100852.12
2022-10-21T05:58:05.278Z,100855.09
2022-10-21T06:01:12.664Z,100855.84
2022-10-21T06:04:18.429Z,100860.64
2022-10-21T06:07:24.229Z,100867.14
2022-10-21T06:10:29.938Z,100873.14
2022-10-21T06:13:35.408Z,100864.71
2022-10-21T06:16:41.925Z,100866.36
2022-10-21T06:19:50.181Z,100867.56
2022-10-21T06:22:56.115Z,100887.59
2022-10-21T06:26:17.075Z,100882.59
2022-10-21T06:29:22.967Z,100885.14
2022-10-21T06:32:28.630Z,100895.95
2022-10-21T06:35:35.083Z,100894.22
2022-10-21T06:38:43.884Z,100893.12
2022-10-21T06:41:50.094Z,100899.33
2022-10-21T06:45:00.162Z,100900.19
2022-10-21T06:47:58.411Z,100901.91
2022-10-21T06:51:04.540Z,100906.52
2022-10-21T06:54:12.757Z,100910.00
2022-10-21T06:57:18.605Z,100910.02
2022-10-21T07:00:25.669Z,100914.36
2022-10-21T07:03:31.310Z,100909.36
2022-10-21T07:06:37.218Z,100923.03
2022-10-21T07:09:44.055Z,100911.41
2022-10-21T07:12:50.643Z,100918.97
2022-10-21T07:15:56.614Z,100914.77
2022-10-21T07:18:56.935Z,100920.64
2022-10-21T07:22:02.307Z,100921.61
2022-10-21T07:25:08.574Z,100918.63
2022-10-21T07:28:14.162Z,100924.27
2022-10-21T07:31:20.104Z,100915.63
2022-10-21T07:34:26.965Z,100924.30
2022-10-21T07:37:33.690Z,100908.52
2022-10-21T07:40:38.654Z,100913.46
2022-10-21T07:43:45.137Z,100905.83
2022-10-21T07:46:52.844Z,100914.20
2022-10-21T07:49:58.982Z,100917.12
2022-10-21T07:53:11.985Z,100923.30
2022-10-21T07:56:22.279Z,100915.09
2022-10-21T07:59:28.487Z,100920.67
2022-10-21T08:02:35.508Z,100931.51
2022-10-21T08:05:43.083Z,100924.98
2022-10-21T08:08:48.921Z,100934.91
2022-10-21T08:11:55.279Z,100938.21
2022-10-21T08:14:55.971Z,100945.41
2022-10-21T08:17:49.513Z,100940.79
2022-10-21T08:20:56.484Z,100951.63
2022-10-21T08:24:01.580Z,100942.54
2022-10-21T08:27:07.179Z,100958.39
2022-10-21T08:30:13.079Z,100966.06
2022-10-21T08:33:19.577Z,100969.19
2022-10-21T08:36:28.880Z,100977.73
2022-10-21T08:39:34.397Z,100984.27
2022-10-21T08:42:40.517Z,100988.38
2022-10-21T08:45:59.824Z,100985.38
2022-10-21T08:49:10.875Z,100993.84
2022-10-21T08:52:20.332Z,100998.63
2022-10-21T08:55:53.664Z,101004.06
2022-10-21T08:59:02.060Z,101002.52
2022-10-21T09:02:31.700Z,100986.95
2022-10-21T09:06:02.764Z,100985.11
2022-10-21T09:09:22.692Z,100984.61
2022-10-21T09:12:48.006Z,100979.67
2022-10-21T09:16:05.673Z,100980.88
2022-10-21T09:19:56.205Z,100986.34
2022-10-21T09:23:46.636Z,100982.24
2022-10-21T09:27:02.583Z,100972.14
2022-10-21T09:30:17.354Z,100971.63
2022-10-21T09:33:39.985Z,100975.04
2022-10-21T09:36:54.742Z,100975.70
2022-10-21T09:40:05.329Z,100970.22
2022-10-21T09:43:12.792Z,100974.67
2022-10-21T09:46:12.028Z,100967.48
2022-10-21T09:49:36.372Z,100972.81
2022-10-21T09:51:53.970Z,100964.73
2022-10-21T09:54:59.415Z,100971.95
2022-10-21T09:58:15.079Z,100979.34
2022-10-21T10:01:23.653Z,100969.52
2022-10-21T10:04:46.983Z,100972.25
2022-10-21T10:07:52.753Z,100976.37
2022-10-21T10:10:57.889Z,100977.44
2022-10-21T10:14:08.136Z,100978.98
2022-10-21T10:17:35.833Z,100979.98
2022-10-21T10:20:42.473Z,100985.63
2022-10-21T10:24:01.734Z,100988.07
2022-10-21T10:27:06.773Z,100981.91
2022-10-21T10:30:13.383Z,101000.07
2022-10-21T10:33:28.808Z,100995.26
2022-10-21T10:36:48.588Z,100992.02
2022-10-21T10:39:54.893Z,100985.16
2022-10-21T10:43:01.416Z,100983.96
2022-10-21T10:46:13.705Z,100989.77
2022-10-21T10:49:32.950Z,100990.10
2022-10-21T10:52:39.552Z,100988.24
2022-10-21T10:55:45.339Z,100989.09
2022-10-21T10:58:52.861Z,100986.02
2022-10-21T11:02:26.173Z,100991.32
2022-10-21T11:05:40.579Z,100978.12
2022-10-21T11:08:50.432Z,100976.75
2022-10-21T11:12:03.025Z,100980.01
2022-10-21T11:15:12.128Z,100978.45
2022-10-21T11:18:30.429Z,100985.13
2022-10-21T11:22:03.770Z,100987.88
2022-10-21T11:25:27.306Z,100981.90
2022-10-21T11:28:54.457Z,100981.53
2022-10-21T11:32:16.104Z,100980.16
2022-10-21T11:35:39.000Z,100974.85
2022-10-21T11:39:11.019Z,100981.20
2022-10-21T11:42:48.816Z,100994.25
2022-10-21T11:46:14.103Z,100987.56
2022-10-21T11:49:36.369Z,100989.42
2022-10-21T11:53:19.290Z,100989.78
2022-10-21T11:56:47.332Z,101003.98
2022-10-21T12:00:09.493Z,100990.78
2022-10-21T12:03:34.586Z,100993.03
2022-10-21T12:07:00.640Z,100999.37
2022-10-21T12:10:33.517Z,100997.48
2022-10-21T12:14:04.867Z,100993.88
2022-10-21T12:17:11.342Z,101003.96
2022-10-21T12:20:23.711Z,101004.84
2022-10-21T12:23:32.095Z,101002.09
2022-10-21T12:26:47.429Z,101002.25
2022-10-21T12:30:15.686Z,101011.17
2022-10-21T12:33:52.599Z,101017.68
2022-10-21T12:36:55.912Z,101015.81
2022-10-21T12:40:03.990Z,101011.72
2022-10-21T12:43:37.641Z,101011.03
2022-10-21T12:46:57.852Z,101001.59
2022-10-21T12:50:21.920Z,101005.55
2022-10-21T12:53:49.609Z,101003.30
2022-10-21T12:57:02.012Z,101006.37
2022-10-21T13:00:07.278Z,101006.21
2022-10-21T13:03:26.496Z,101008.08
2022-10-21T13:06:32.624Z,101016.48
2022-10-21T13:10:05.423Z,101009.80
2022-10-21T13:13:35.171Z,101016.83
2022-10-21T13:16:43.703Z,101012.03
2022-10-21T13:19:48.753Z,101004.67
2022-10-21T13:23:01.802Z,101009.30
2022-10-21T13:26:28.169Z,101013.25
2022-10-21T13:29:52.141Z,101010.52
2022-10-21T13:32:59.269Z,101005.04
2022-10-21T13:36:10.904Z,101012.36
2022-10-21T13:39:22.262Z,101013.14
2022-10-21T13:42:28.677Z,101011.22
2022-10-21T13:45:44.735Z,101013.59
2022-10-21T13:48:55.383Z,101010.45
2022-10-21T13:52:01.714Z,101006.71
2022-10-21T13:55:08.114Z,101012.98
2022-10-21T13:58:14.532Z,101007.05
2022-10-21T14:01:30.998Z,101010.45
2022-10-21T14:04:40.246Z,101014.32
2022-10-21T14:07:46.819Z,101011.31
2022-10-21T14:10:52.678Z,101008.27
2022-10-21T14:13:58.125Z,101015.08
2022-10-21T14:17:17.775Z,101011.34
2022-10-21T14:20:29.159Z,101003.54
2022-10-21T14:23:35.324Z,101012.34
2022-10-21T14:26:41.045Z,101015.80
2022-10-21T14:29:49.011Z,101019.67
2022-10-21T14:32:56.954Z,101015.06
2022-10-21T14:36:25.887Z,101018.56
2022-10-21T14:39:33.371Z,101022.73
2022-10-21T14:42:39.907Z,101021.28
2022-10-21T14:45:52.802Z,101019.67
2022-10-21T14:49:12.320Z,101016.69
2022-10-21T14:52:21.534Z,101022.03
2022-10-21T14:55:38.851Z,101023.23
2022-10-21T14:58:53.863Z,101023.19
2022-10-21T15:01:59.643Z,101026.63
2022-10-21T15:05:08.622Z,101040.13
2022-10-21T15:08:43.659Z,101037.23
2022-10-21T15:11:52.920Z,101037.11
2022-10-21T15:14:58.453Z,101044.81
2022-10-21T15:18:07.431Z,101037.94
2022-10-21T15:21:29.965Z,101038.73
2022-10-21T15:24:56.427Z,101044.27
2022-10-21T15:28:03.560Z,101048.05
2022-10-21T15:31:09.731Z,101059.27
2022-10-21T15:34:16.512Z,101059.03
2022-10-21T15:37:23.276Z,101068.11
2022-10-21T15:40:28.802Z,101073.41
2022-10-21T15:43:34.857Z,101086.06
2022-10-21T15:46:41.154Z,101093.66
2022-10-21T15:49:56.760Z,101097.00
2022-10-21T15:53:02.329Z,101101.55
2022-10-21T15:56:07.878Z,101101.31
2022-10-21T15:59:13.539Z,101100.36
2022-10-21T16:02:19.214Z,101095.91
2022-10-21T16:05:24.935Z,101104.16
2022-10-21T16:08:30.549Z,101105.91
2022-10-21T16:11:41.033Z,101102.83
2022-10-21T16:14:44.900Z,101092.95
2022-10-21T16:17:51.493Z,101098.56
2022-10-21T16:20:58.570Z,101101.58
2022-10-21T16:24:05.390Z,101100.12
2022-10-21T16:27:11.123Z,101103.53
2022-10-21T16:30:32.549Z,101107.91
2022-10-21T16:33:39.759Z,101101.77
2022-10-21T16:36:45.986Z,101109.78
2022-10-21T16:39:52.462Z,101112.49
2022-10-21T16:42:57.870Z,101118.66
2022-10-21T16:46:03.595Z,101124.03
2022-10-21T16:49:11.991Z,101135.08
2022-10-21T16:52:17.191Z,101142.51
2022-10-21T16:55:27.107Z,101132.52
2022-10-21T16:58:33.323Z,101125.84
2022-10-21T17:01:40.178Z,101135.80
2022-10-21T17:04:45.860Z,101130.85
2022-10-21T17:07:52.447Z,101131.38
2022-10-21T17:10:58.788Z,101133.86
2022-10-21T17:14:05.456Z,101129.28
2022-10-21T17:17:11.256Z,101131.14
2022-10-21T17:20:17.642Z,101129.83
2022-10-21T17:23:24.788Z,101126.99
2022-10-21T17:26:30.964Z,101122.05
2022-10-21T17:29:36.772Z,101115.14
2022-10-21T17:35:41.867Z,101118.81
2022-10-21T17:38:48.841Z,101118.31
2022-10-21T17:41:55.378Z,101121.89
2022-10-21T17:45:03.794Z,101127.67
2022-10-21T17:48:10.201Z,101135.02
2022-10-21T17:51:17.105Z,101135.25
2022-10-21T17:54:26.516Z,101132.18
2022-10-21T17:57:31.005Z,101123.02
2022-10-21T18:00:39.952Z,101133.64
2022-10-21T18:03:45.614Z,101133.14
2022-10-21T18:06:52.617Z,101137.45
2022-10-21T18:09:58.074Z,101138.94
2022-10-21T18:12:57.888Z,101134.42
2022-10-21T18:15:49.573Z,101143.40
2022-10-21T18:21:30.569Z,101139.35
2022-10-21T18:24:26.882Z,101146.86
2022-10-21T18:27:12.667Z,101156.88
2022-10-21T18:30:06.003Z,101148.71
2022-10-21T18:32:58.954Z,101146.38
2022-10-21T18:36:05.119Z,101148.19
2022-10-21T18:39:12.565Z,101159.30
2022-10-21T18:42:19.929Z,101161.87
2022-10-21T18:45:25.876Z,101165.30
2022-10-21T18:48:31.473Z,101163.80
2022-10-21T18:51:37.543Z,101172.44
2022-10-21T18:54:36.669Z,101180.16
2022-10-21T18:57:43.061Z,101187.67
2022-10-21T19:00:50.971Z,101185.19
2022-10-21T19:03:58.891Z,101190.30
2022-10-21T19:07:06.168Z,101186.95
2022-10-21T19:10:13.028Z,101197.28
2022-10-21T19:13:19.728Z,101197.38
2022-10-21T19:16:25.686Z,101200.50
2022-10-21T19:19:35.901Z,101215.20
2022-10-21T19:22:39.944Z,101214.17
2022-10-21T19:25:47.119Z,101220.97
2022-10-21T19:28:53.742Z,101207.91
2022-10-21T19:32:00.404Z,101211.09
2022-10-21T19:35:07.501Z,101217.77
2022-10-21T19:38:20.857Z,101208.48
2022-10-21T19:41:27.581Z,101207.03
2022-10-21T19:44:34.749Z,101207.13
2022-10-21T19:47:41.307Z,101202.05
2022-10-21T19:50:47.753Z,101199.98
2022-10-21T19:53:54.265Z,101211.19
2022-10-21T19:57:00.463Z,101204.88
2022-10-21T20:00:05.859Z,101198.81
2022-10-21T20:03:10.999Z,101198.91
2022-10-21T20:06:24.694Z,101197.65
2022-10-21T20:09:32.817Z,101202.81
2022-10-21T20:12:38.836Z,101209.74
2022-10-21T20:15:47.206Z,101205.40
2022-10-21T20:18:54.420Z,101201.67
2022-10-21T20:22:00.271Z,101203.03
2022-10-21T20:25:09.296Z,101208.08
2022-10-21T20:28:14.528Z,101206.51
2022-10-21T20:31:23.757Z,101207.95
2022-10-21T20:34:28.466Z,101209.09
2022-10-21T20:37:34.748Z,101210.50
2022-10-21T20:40:40.655Z,101208.66
2022-10-21T20:43:45.456Z,101209.80
2022-10-21T20:46:51.287Z,101209.30
2022-10-21T20:49:57.068Z,101212.84
2022-10-21T20:53:03.908Z,101208.91
2022-10-21T20:56:12.999Z,101204.59
2022-10-21T20:59:19.368Z,101207.46
2022-10-21T21:02:25.288Z,101206.56
2022-10-21T21:05:31.596Z,101202.34
2022-10-21T21:08:41.479Z,101208.87
2022-10-21T21:11:46.167Z,101209.57
2022-10-21T21:14:52.264Z,101209.63
2022-10-21T21:18:03.190Z,101203.77
2022-10-21T21:21:10.469Z,101207.70
2022-10-21T21:24:15.948Z,101210.73
2022-10-21T21:27:21.565Z,101212.30
2022-10-21T21:30:26.884Z,101205.16
2022-10-21T21:33:32.826Z,101207.29
2022-10-21T21:36:38.494Z,101197.58
2022-10-21T21:39:44.932Z,101196.02
2022-10-21T21:42:50.608Z,101213.84
2022-10-21T21:46:02.405Z,101211.09
2022-10-21T21:49:10.501Z,101210.28
2022-10-21T21:52:16.008Z,101203.77
2022-10-21T21:55:22.178Z,101203.69
2022-10-21T21:58:27.976Z,101204.55
2022-10-21T22:01:35.692Z,101202.12
2022-10-21T22:04:42.418Z,101198.52
2022-10-21T22:07:47.159Z,101199.37
2022-10-21T22:10:53.447Z,101205.41
2022-10-21T22:14:00.113Z,101200.77
2022-10-21T22:17:06.998Z,101204.45
2022-10-21T22:20:12.681Z,101191.78
2022-10-21T22:23:18.115Z,101188.42
2022-10-21T22:26:24.178Z,101178.99
2022-10-21T22:29:30.141Z,101185.05
2022-10-21T22:32:36.432Z,101181.00
2022-10-21T22:35:43.250Z,101183.40
2022-10-21T22:38:49.894Z,101187.59
2022-10-21T22:41:56.301Z,101184.17
2022-10-21T22:45:02.623Z,101181.65
2022-10-21T22:48:08.008Z,101181.00
2022-10-21T22:51:13.769Z,101182.75
2022-10-21T22:54:42.965Z,101194.45
2022-10-21T22:57:25.814Z,101186.33
2022-10-21T23:00:31.555Z,101180.05
2022-10-21T23:03:37.135Z,101173.25
2022-10-21T23:06:48.325Z,101172.73
2022-10-21T23:09:57.431Z,101177.74
2022-10-21T23:13:03.829Z,101173.90
2022-10-21T23:16:09.550Z,101184.41
2022-10-21T23:19:16.386Z,101185.16
2022-10-21T23:22:22.390Z,101186.14
2022-10-21T23:25:29.707Z,101191.16
2022-10-21T23:28:36.038Z,101185.41
2022-10-21T23:31:41.705Z,101188.80
2022-10-21T23:34:48.071Z,101189.55
2022-10-21T23:37:54.287Z,101186.26
2022-10-21T23:40:59.961Z,101177.00
2022-10-21T23:43:52.759Z,101178.19
2022-10-21T23:46:59.458Z,101176.50
2022-10-21T23:50:05.230Z,101167.81
2022-10-21T23:53:10.920Z,101170.47
2022-10-21T23:56:17.664Z,101172.07
2022-10-21T23:59:23.257Z,101168.06
